Tiempo atmosférico en la estación meteorológica de Pozuelo De Tabara, Zamora (711 m.)



Fecha
DESCASC
Temp. máxima en grados centígrados (hora)
DESCASC
Temp. mínima en grados centígrados (hora)
DESCASC
Temp. media en grados centígrados
DESCASC
Racha de viento máxima en m/sg (hora)
DESCASC
Velocidad máxima media en intervalos de 10 minutos(hora)
DESCASC
Precipitaciones diarias en mm
DESCASC
Precipitaciones de 00:00 a 06:00 en mm
DESCASC
Precipitaciones de 06:00 a 12:00 en mm
DESCASC
Precipitaciones de 12:00 a 18:00 en mm
DESCASC
Precipitaciones de 18:00 a 24:00 en mm
DESCASC
29-03-2020 17 (17:20) 0.8 (07:10) 8.9 12.78 (21:40) 8.89 (21:40) 0 0 0 0 0
28-03-2020 15 (15:50) -1.1 (06:20) 6.9 7.5 (15:00) 3.61 (02:20) 0 0 0 0 0
27-03-2020 12.5 (16:20) -1.9 (06:50) 5.3 11.39 (10:00) 7.78 (13:10) 0 0 0 0 0
26-03-2020 16.4 (16:50) -2.2 (-00:0) 7.1 6.11 (14:40) 3.89 (17:50) 0 0 0 0 0
25-03-2020 20.3 (16:10) 2.7 (00:00) 11.5 7.78 (16:30) 5 (20:20) 0 0 0 0 0
24-03-2020 15.9 (15:40) 2.6 (00:00) 9.2 12.22 (14:10) 6.67 (15:10) 0 0 0 0 0
23-03-2020 15.2 (17:20) 4.9 (00:00) 10 9.72 (15:00) 6.39 (15:00) 0.6 0 0 0 0.6
22-03-2020 15.9 (16:40) 6.3 (23:40) 11.1 6.67 (20:30) 4.72 (19:00) 1.4 1.2 0 0.2 0
21-03-2020 12.2 (16:30) 6.1 (00:00) 9.1 8.06 (13:40) 5 (13:40) 0.6 0.2 0 0 0.4
20-03-2020 13.2 (14:10) 6.8 (00:00) 10 9.17 (15:00) 6.39 (15:00) 1.4 0 0 1.2 0.2
19-03-2020 16.7 (16:20) 5.2 (00:00) 11 5.83 (17:00) 4.17 (17:00) 0 0 0 0 0
18-03-2020 17.3 (17:20) 4.6 (00:00) 10.9 6.67 (14:50) 4.44 (11:50) 0 0 0 0 0
17-03-2020 14.5 (16:00) 5.5 (00:00) 10 14.44 (10:30) 9.17 (11:20) 0 0 0 0 0
16-03-2020 10.5 (15:30) 1.6 (00:00) 6.1 14.72 (15:50) 9.72 (15:50) 3 2.8 0.2 0 0
15-03-2020 17.3 (13:10) -0.7 (-00:0) 8.3 12.5 (17:10) 9.17 (18:40) 0.2 0 0 0 0.2
14-03-2020 17.2 (17:30) -0.5 (-00:0) 8.4 5.56 (15:30) 3.06 (17:40) 0 0 0 0 0
13-03-2020 15.4 (15:50) 4 (23:59) 9.7 8.61 (09:40) 5.56 (10:40) 0 0 0 0 0
12-03-2020 19.4 (15:40) 7.5 (00:00) 13.4 10.56 (22:50) 6.39 (22:50) 0 0 0 0 0
11-03-2020 23.7 (16:20) 2.1 (00:00) 12.9 9.72 (17:00) 7.78 (16:40) 0 0 0 0 0
10-03-2020 21.3 (17:20) 4.2 (00:00) 12.7 11.39 (20:30) 8.33 (20:00) 0 0 0 0 0
09-03-2020 16.3 (16:50) 1 (00:00) 8.6 7.5 (17:10) 5.28 (17:50) 0 0 0 0 0
08-03-2020 14.7 (15:20) 2.7 (00:00) 8.7 15.28 (16:40) 11.94 (16:40) 0 0 0 0 0
07-03-2020 14.9 (16:30) 2 (00:00) 8.4 8.06 (22:50) 6.11 (22:50) 0 0 0 0 0
06-03-2020 11.3 (15:10) 2.8 (00:00) 7.1 16.11 (12:40) 10.83 (12:40) 0.8 0.8 0 0 0
05-03-2020 13 (16:00) 5.4 (00:00) 9.2 18.89 (08:30) 13.89 (08:10) 1.8 0.4 1.4 0 0
04-03-2020 14.6 (17:10) 9.8 (08:40) 12.2 11.67 (13:40) 9.44 (14:10) 0 0 0 0 0
03-03-2020 16.6 (15:20) 4.6 (00:00) 10.6 19.72 (11:30) 13.61 (11:30) 0 0 0 0 0
02-03-2020 11.1 (03:20) 4.3 (00:00) 7.7 25.28 (04:20) 18.33 (04:20) 4.4 4.4 0 0 0
01-03-2020 14.7 (14:40) 6.1 (00:00) 10.4 19.17 (14:00) 13.89 (13:30) 11.4 0 1.2 0 10.2
29-02-2020 12.2 (13:50) 6.7 (00:00) 9.4 17.78 (13:10) 13.06 (13:30) 0 0 0 0 0

Gráficas

Temp. máximas Temp. mínimas Temp. medias Precipitaciones Rachas de viento máximas Velocidades máximas media en intervalos de 10 minutos

Datos horarios

Fecha y hora oficial Temperatura (ºC) Velocidad del viento (km/h) Dirección del viento Racha (km/h) Dirección de racha Precipitación (mm) Presión (hPa) Tendencia (hPa) Humedad (%)
2020-03-29 23:00:00 7.9 19 Nordeste 41 Este 0 -- -- 70
2020-03-29 22:00:00 9.6 25 Este 46 Este 0 -- -- 60
2020-03-29 21:00:00 12 0 Calma 7 Sur 0 -- -- 61
2020-03-29 20:00:00 13.8 4 Sudeste 9 Sudeste 0 -- -- 50
2020-03-29 19:00:00 15.2 4 Sudeste 12 Nordeste 0 -- -- 42
2020-03-29 18:00:00 16.7 4 Este 11 Noroeste 0 -- -- 39
2020-03-29 17:00:00 16.7 4 Sudeste 12 Este 0 -- -- 37
2020-03-29 16:00:00 16.7 4 Oeste 10 Sur 0 -- -- 38
2020-03-29 15:00:00 15.1 4 Nordeste 12 Nordeste 0 -- -- 45
2020-03-29 14:00:00 14.2 5 Sudeste 18 Este 0 -- -- 52
2020-03-29 13:00:00 12.1 7 Nordeste 14 Nordeste 0 -- -- 55
2020-03-29 12:00:00 10.4 6 Nordeste 16 Nordeste 0 -- -- 60
2020-03-29 11:00:00 8.5 8 Nordeste 14 Nordeste 0 -- -- 64
2020-03-29 10:00:00 7 4 Norte 10 Nordeste 0 -- -- 70
2020-03-29 09:00:00 2.6 10 Noroeste 14 Noroeste 0 -- -- 90
2020-03-29 08:00:00 1.2 13 Oeste 14 Noroeste 0 -- -- 91
2020-03-29 07:00:00 0.9 9 Noroeste 12 Oeste 0 -- -- 90
2020-03-29 06:00:00 1.5 10 Noroeste 14 Oeste 0 -- -- 87
2020-03-29 05:00:00 2 13 Noroeste 16 Oeste 0 -- -- 86
2020-03-29 03:00:00 2.1 5 Sudeste 24 Este 0 -- -- 85
2020-03-29 01:00:00 2.8 3 Oeste 9 Noroeste 0 -- -- 84
2020-03-29 00:00:00 3.5 8 Noroeste 10 Noroeste 0 -- -- 85
2020-03-28 23:00:00 4.1 8 Oeste 11 Oeste 0 -- -- 82
2020-03-28 22:00:00 5.4 12 Oeste 14 Oeste 0 -- -- 77
2020-03-28 21:00:00 7.3 8 Noroeste 12 Sudoeste 0 -- -- 67
2020-03-28 20:00:00 9.5 11 Sudoeste 13 Sudoeste 0 -- -- 55
2020-03-28 19:00:00 13 4 Sudoeste 10 Sur 0 -- -- 44
2020-03-28 18:00:00 14.5 3 Sur 13 Sudeste 0 -- -- 39
2020-03-28 17:00:00 14.6 6 Sudeste 14 Este 0 -- -- 36
2020-03-28 16:00:00 14.9 6 Este 17 Sudeste 0 -- -- 34
2020-03-28 15:00:00 14.8 12 Sudeste 27 Sudeste 0 -- -- 38
2020-03-28 14:00:00 13.7 9 Este 20 Este 0 -- -- 37
2020-03-28 13:00:00 12.7 5 Sudeste 15 Este 0 -- -- 43
2020-03-28 12:00:00 10.7 8 Este 15 Nordeste 0 -- -- 49
2020-03-28 11:00:00 8.7 6 Nordeste 16 Nordeste 0 -- -- 57
2020-03-28 10:00:00 6.8 9 Nordeste 15 Nordeste 0 -- -- 64
2020-03-28 09:00:00 4.8 6 Norte 11 Norte 0 -- -- 68
2020-03-28 08:00:00 0.1 9 Noroeste 14 Noroeste 0 -- -- 89
2020-03-28 07:00:00 -1 12 Oeste 14 Noroeste 0 -- -- 88
2020-03-28 06:00:00 -1 11 Noroeste 15 Oeste 0 -- -- 88
2020-03-28 05:00:00 -1 13 Oeste 15 Oeste 0 -- -- 88
2020-03-28 04:00:00 -0.8 9 Noroeste 14 Oeste 0 -- -- 88
2020-03-28 03:00:00 -0.4 8 Noroeste 16 Oeste 0 -- -- 87
2020-03-28 02:00:00 -0.4 6 Noroeste 10 Oeste 0 -- -- 88
2020-03-28 01:00:00 0.6 6 Noroeste 12 Oeste 0 -- -- 86
2020-03-28 00:00:00 1.4 7 Noroeste 12 Noroeste 0 -- -- 82
2020-03-27 23:00:00 1.8 5 Noroeste 13 Oeste 0 -- -- 83
2020-03-27 22:00:00 2.6 6 Noroeste 14 Oeste 0 -- -- 81
2020-03-27 21:00:00 4.1 8 Noroeste 11 Sudoeste 0 -- -- 75
2020-03-27 20:00:00 7.1 10 Sudoeste 13 Sudeste 0 -- -- 57
2020-03-27 19:00:00 11.1 13 Sudeste 23 Sudeste 0 -- -- 40
2020-03-27 18:00:00 12.1 17 Este 30 Sudeste 0 -- -- 36
2020-03-27 17:00:00 11.9 16 Este 32 Este 0 -- -- 36
2020-03-27 16:00:00 11.8 18 Este 35 Este 0 -- -- 39
2020-03-27 15:00:00 11 17 Este 37 Este 0 -- -- 41
2020-03-27 14:00:00 9.1 24 Este 40 Este 0 -- -- 44
2020-03-27 13:00:00 8.9 26 Este 39 Este 0 -- -- 44
2020-03-27 12:00:00 7.2 22 Este 33 Nordeste 0 -- -- 51
2020-03-27 11:00:00 5.9 22 Este 39 Este 0 -- -- 60
2020-03-27 10:00:00 4.1 27 Este 41 Este 0 -- -- 69
2020-03-27 09:00:00 2.5 15 Nordeste 23 Nordeste 0 -- -- 77
2020-03-27 08:00:00 -1.2 2 Norte 6 Norte 0 -- -- 88
2020-03-27 07:00:00 -1.7 6 Norte 9 Norte 0 -- -- 88
2020-03-27 06:00:00 -1.2 2 Nordeste 10 Nordeste 0 -- -- 85
2020-03-27 05:00:00 -1.6 3 Noroeste 5 Noroeste 0 -- -- 91
2020-03-27 04:00:00 -0.7 0 Calma 3 Oeste 0 -- -- 86
2020-03-27 03:00:00 0.6 0 Calma 6 Este 0 -- -- 84
2020-03-27 02:00:00 1.9 0 Calma 9 Este 0 -- -- 81
2020-03-27 01:00:00 2.2 6 Nordeste 17 Este 0 -- -- 82
2020-03-27 00:00:00 3.6 9 Este 20 Este 0 -- -- 76
2020-03-26 23:00:00 4.1 8 Nordeste 16 Este 0 -- -- 75
2020-03-26 22:00:00 6.1 7 Nordeste 21 Este 0 -- -- 67
2020-03-26 21:00:00 7.2 3 Sudeste 8 Este 0 -- -- 60
2020-03-26 20:00:00 10.2 8 Este 15 Sudeste 0 -- -- 51
2020-03-26 19:00:00 13.7 12 Sudeste 18 Sudeste 0 -- -- 42
2020-03-26 18:00:00 15.3 13 Sudeste 19 Sudeste 0 -- -- 37
2020-03-26 17:00:00 16.1 8 Sur 13 Sudeste 0 -- -- 31
2020-03-26 16:00:00 15.5 4 Sudeste 19 Este 0 -- -- 31
2020-03-26 15:00:00 14.3 9 Sur 22 Sudeste 0 -- -- 36
2020-03-26 14:00:00 13.1 9 Sudeste 16 Sudeste 0 -- -- 40
2020-03-26 13:00:00 11.7 9 Este 19 Este 0 -- -- 48
2020-03-26 12:00:00 10.1 8 Este 15 Este 0 -- -- 52
2020-03-26 11:00:00 8.4 8 Sudeste 14 Sudeste 0 -- -- 58
2020-03-26 10:00:00 5.8 5 Este 9 Este 0 -- -- 71
2020-03-26 09:00:00 2.7 0 Calma 4 Norte 0 -- -- 83
2020-03-26 08:00:00 -1.1 2 Noroeste 3 Noroeste 0 -- -- 94
2020-03-26 07:00:00 -2.2 4 Sudeste 10 Sudeste 0 -- -- 92
2020-03-26 06:00:00 -0.7 6 Noroeste 11 Oeste 0 -- -- 93
2020-03-26 05:00:00 -0.8 0 Calma 4 Norte 0 -- -- 91
2020-03-26 04:00:00 0 4 Noroeste 9 Oeste 0 -- -- 90
2020-03-26 03:00:00 1 5 Norte 9 Nordeste 0 -- -- 88
2020-03-26 02:00:00 2.2 0 Calma 6 Oeste 0 -- -- 85
2020-03-26 01:00:00 3 2 Oeste 9 Oeste 0 -- -- 81
2020-03-26 00:00:00 5.8 5 Sur 10 Nordeste 0 -- -- 58
2020-03-25 23:00:00 6.9 2 Oeste 13 Norte 0 -- -- 56
2020-03-25 22:00:00 7.4 6 Noroeste 13 Norte 0 -- -- 63
2020-03-25 21:00:00 12.4 11 Norte 28 Norte 0 -- -- 36
2020-03-25 20:00:00 15 12 Norte 19 Norte 0 -- -- 32
2020-03-25 19:00:00 16.7 4 Norte 13 Este 0 -- -- 46
2020-03-25 18:00:00 17.4 5 Este 14 Sur 0 -- -- 45
2020-03-25 17:00:00 18.4 10 Nordeste 28 Nordeste 0 -- -- 39
2020-03-25 16:00:00 20.1 10 Noroeste 23 Noroeste 0 -- -- 31
2020-03-25 15:00:00 18.6 9 Nordeste 23 Noroeste 0 -- -- 41
2020-03-25 14:00:00 17.3 11 Norte 27 Nordeste 0 -- -- 41
2020-03-25 13:00:00 17.1 9 Nordeste 19 Nordeste 0 -- -- 55
2020-03-25 12:00:00 15.4 4 Sudeste 15 Sudeste 0 -- -- 60
2020-03-25 11:00:00 13.2 7 Sudeste 12 Este 0 -- -- 68
2020-03-25 10:00:00 10.8 4 Este 7 Este 0 -- -- 74
2020-03-25 09:00:00 6.4 0 Calma 4 Oeste 0 -- -- 96
2020-03-25 08:00:00 3.3 0 Calma 11 Noroeste 0 -- -- 95
2020-03-25 07:00:00 3.1 10 Noroeste 14 Noroeste 0 -- -- 95
2020-03-25 06:00:00 3.2 7 Noroeste 15 Oeste 0 -- -- 94
2020-03-25 05:00:00 2.9 6 Oeste 10 Noroeste 0 -- -- 93
2020-03-25 04:00:00 3.5 6 Noroeste 12 Noroeste 0 -- -- 93
2020-03-25 03:00:00 3.8 8 Oeste 11 Oeste 0 -- -- 93
2020-03-25 02:00:00 4.4 5 Oeste 13 Oeste 0 -- -- 91
2020-03-25 01:00:00 5.1 13 Oeste 16 Oeste 0 -- -- 90
2020-03-25 00:00:00 5 6 Noroeste 17 Oeste 0 -- -- 90
2020-03-24 23:00:00 5.2 6 Oeste 12 Oeste 0 -- -- 90
2020-03-24 22:00:00 5.7 8 Noroeste 10 Oeste 0 -- -- 89
2020-03-24 21:00:00 6.8 4 Oeste 5 Oeste 0 -- -- 85
2020-03-24 20:00:00 10.9 0 Calma 13 Nordeste 0 -- -- 69
2020-03-24 19:00:00 14.5 8 Este 23 Este 0 -- -- 54
2020-03-24 18:00:00 14.9 14 Este 30 Este 0 -- -- 54
2020-03-24 17:00:00 15.6 17 Este 33 Este 0 -- -- 49
2020-03-24 16:00:00 15.6 21 Este 39 Este 0 -- -- 49
2020-03-24 15:00:00 15.2 19 Nordeste 44 Nordeste 0 -- -- 56
2020-03-24 14:00:00 15.3 19 Este 33 Este 0 -- -- 54
2020-03-24 13:00:00 14.6 19 Este 31 Este 0 -- -- 61
2020-03-24 12:00:00 13.2 20 Este 32 Este 0 -- -- 68
2020-03-24 11:00:00 11.5 15 Este 24 Este 0 -- -- 75
2020-03-24 10:00:00 9.4 13 Nordeste 21 Este 0 -- -- 84
2020-03-24 09:00:00 7.2 11 Nordeste 18 Nordeste 0 -- -- 93
2020-03-24 08:00:00 4.5 3 Noroeste 7 Noroeste 0 -- -- 98
2020-03-24 07:00:00 3.2 4 Noroeste 10 Noroeste 0 -- -- 97
2020-03-24 06:00:00 2.6 6 Noroeste 12 Noroeste 0 -- -- 96
2020-03-24 05:00:00 3.1 10 Noroeste 12 Noroeste 0 -- -- 96
2020-03-24 04:00:00 3.2 10 Oeste 11 Noroeste 0 -- -- 95
2020-03-24 03:00:00 4 9 Noroeste 12 Noroeste 0 -- -- 95
2020-03-24 02:00:00 4.2 3 Oeste 6 Noroeste 0 -- -- 93
2020-03-24 01:00:00 6.1 0 Calma 9 Este 0 -- -- 88
2020-03-24 00:00:00 6.9 0 Calma 14 Este 0 -- -- 87
2020-03-23 23:00:00 7.7 6 Este 11 Este 0 -- -- 85
2020-03-23 22:00:00 7.4 5 Noroeste 12 Oeste 0 -- -- 91
2020-03-23 21:00:00 9.5 5 Oeste 19 Este 0.6 -- -- 88
2020-03-23 20:00:00 11.9 6 Sudeste 18 Sudeste 0 -- -- 69
2020-03-23 19:00:00 13.6 9 Este 26 Sudeste 0 -- -- 57
2020-03-23 18:00:00 14.8 9 Nordeste 25 Este 0 -- -- 52
2020-03-23 17:00:00 14.7 14 Este 31 Este 0 -- -- 53
2020-03-23 16:00:00 14.6 18 Este 33 Este 0 -- -- 56
2020-03-23 15:00:00 14 23 Este 35 Este 0 -- -- 56
2020-03-23 14:00:00 14.2 20 Este 35 Este 0 -- -- 56
2020-03-23 13:00:00 13.1 23 Este 31 Este 0 -- -- 66
2020-03-23 12:00:00 12.8 19 Este 33 Este 0 -- -- 66
2020-03-23 11:00:00 10.4 16 Nordeste 24 Nordeste 0 -- -- 76
2020-03-23 10:00:00 8.6 16 Nordeste 23 Nordeste 0 -- -- 80
2020-03-23 09:00:00 7.2 9 Nordeste 16 Nordeste 0 -- -- 83
2020-03-23 08:00:00 5.2 4 Norte 9 Nordeste 0 -- -- 89
2020-03-23 07:00:00 5.4 4 Norte 9 Norte 0 -- -- 88
2020-03-23 06:00:00 6.3 2 Norte 10 Norte 0 -- -- 86
2020-03-23 05:00:00 6.5 7 Norte 13 Nordeste 0 -- -- 86
2020-03-23 04:00:00 6.6 6 Norte 18 Norte 0 -- -- 85
2020-03-23 03:00:00 6.5 5 Norte 15 Nordeste 0 -- -- 88
2020-03-23 02:00:00 6.2 6 Noroeste 9 Nordeste 0 -- -- 89
2020-03-23 01:00:00 7.3 0 Calma 5 Norte 0 -- -- 87
2020-03-23 00:00:00 6.6 3 Noroeste 9 Noroeste 0 -- -- 94
2020-03-22 23:00:00 7 7 Oeste 12 Oeste 0 -- -- 92
2020-03-22 22:00:00 7.7 10 Noroeste 14 Noroeste 0 -- -- 90
2020-03-22 21:00:00 9.6 10 Noroeste 24 Norte 0 -- -- 78
2020-03-22 20:00:00 11.4 4 Este 22 Sudeste 0 -- -- 69
2020-03-22 19:00:00 13.5 17 Sudeste 23 Sudeste 0 -- -- 69
2020-03-22 18:00:00 15.4 5 Sur 19 Sur 0 -- -- 55
2020-03-22 17:00:00 15.3 4 Nordeste 13 Sudeste 0 -- -- 59
2020-03-22 16:00:00 15.4 3 Sudeste 12 Este 0 -- -- 61
2020-03-22 15:00:00 14.3 5 Este 15 Este 0 -- -- 66
2020-03-22 14:00:00 13 5 Este 13 Nordeste 0.2 -- -- 71
2020-03-22 13:00:00 12.3 3 Norte 10 Nordeste 0 -- -- 77
2020-03-22 12:00:00 11.1 6 Este 12 Este 0 -- -- 81
2020-03-22 11:00:00 9.6 8 Nordeste 13 Nordeste 0 -- -- 90
2020-03-22 10:00:00 7.9 2 Nordeste 12 Norte 0 -- -- 97
2020-03-22 09:00:00 7.3 6 Nordeste 12 Nordeste 0 -- -- 97
2020-03-22 08:00:00 7.3 6 Este 9 Nordeste 0 -- -- 97
2020-03-22 07:00:00 7.3 4 Nordeste 6 Este 0 -- -- 97
2020-03-22 06:00:00 7.3 3 Nordeste 4 Nordeste 0 -- -- 97
2020-03-22 05:00:00 7.5 2 Oeste 5 Noroeste 0.2 -- -- 96
2020-03-22 04:00:00 7.4 4 Noroeste 6 Noroeste 0.2 -- -- 96
2020-03-22 03:00:00 7.7 5 Noroeste 8 Noroeste 0.8 -- -- 95
2020-03-22 02:00:00 7.7 0 Calma 11 Oeste 0 -- -- 93
2020-03-22 01:00:00 7.9 3 Sur 11 Noroeste 0 -- -- 93
2020-03-22 00:00:00 8.2 6 Oeste 14 Oeste 0.4 -- -- 92
2020-03-21 23:00:00 8.3 5 Oeste 15 Oeste 0 -- -- 91
2020-03-21 22:00:00 8.4 15 Sudoeste 22 Sudoeste 0 -- -- 90
2020-03-21 21:00:00 8.7 6 Oeste 17 Oeste 0 -- -- 89
2020-03-21 20:00:00 8.9 10 Oeste 22 Sudoeste 0 -- -- 87
2020-03-21 19:00:00 9.6 15 Sudoeste 22 Sudoeste 0 -- -- 85
2020-03-21 18:00:00 10.6 15 Sudoeste 21 Sudoeste 0 -- -- 82
2020-03-21 17:00:00 12 5 Sudeste 12 Sur 0 -- -- 74
2020-03-21 16:00:00 11.4 6 Sudeste 19 Sudeste 0 -- -- 75
2020-03-21 15:00:00 11.4 7 Sudeste 23 Sudeste 0 -- -- 75
2020-03-21 14:00:00 12.1 14 Sudeste 29 Sudeste 0 -- -- 75
2020-03-21 13:00:00 10.6 15 Este 24 Sudeste 0 -- -- 81
2020-03-21 12:00:00 8.8 13 Este 25 Este 0 -- -- 88
2020-03-21 11:00:00 8.6 12 Este 19 Este 0 -- -- 91
2020-03-21 10:00:00 8.3 6 Este 12 Este 0 -- -- 91
2020-03-21 09:00:00 8 5 Este 9 Este 0 -- -- 93
2020-03-21 08:00:00 6.6 3 Este 12 Nordeste 0 -- -- 95
2020-03-21 07:00:00 6.6 0 Calma 8 Este 0 -- -- 93
2020-03-21 06:00:00 7.3 0 Calma 6 Este 0.2 -- -- 93
2020-03-21 05:00:00 7 2 Este 9 Sur 0 -- -- 96
2020-03-21 04:00:00 7 2 Sudeste 7 Este 0 -- -- 96
2020-03-21 03:00:00 7.1 2 Sudeste 5 Este 0 -- -- 97
2020-03-21 02:00:00 7.2 0 Calma 3 Sur 0 -- -- 97
2020-03-21 01:00:00 7.3 0 Calma 3 Oeste 0 -- -- 97
2020-03-21 00:00:00 6.9 0 Calma 6 Oeste 0 -- -- 96
2020-03-20 23:00:00 7.5 0 Calma 6 Oeste 0.2 -- -- 95
2020-03-20 22:00:00 8.1 3 Noroeste 5 Sudeste 0 -- -- 94
2020-03-20 21:00:00 9.4 4 Sudeste 8 Sudeste 0 -- -- 93
2020-03-20 20:00:00 10 6 Sudeste 8 Sudeste 0 -- -- 91
2020-03-20 19:00:00 10.4 3 Nordeste 8 Noroeste 0 -- -- 89
2020-03-20 18:00:00 10.7 0 Calma 10 Sudeste 0.2 -- -- 85
2020-03-20 17:00:00 10.5 2 Nordeste 17 Oeste 0.2 -- -- 85
2020-03-20 16:00:00 10.4 13 Oeste 31 Oeste 0.2 -- -- 88
2020-03-20 15:00:00 10.5 23 Oeste 33 Sudoeste 0.6 -- -- 89
2020-03-20 14:00:00 13.1 3 Sudoeste 12 Nordeste 0 -- -- 73
2020-03-20 13:00:00 12.4 6 Este 17 Este 0 -- -- 76
2020-03-20 12:00:00 11.2 7 Este 18 Este 0 -- -- 81
2020-03-20 11:00:00 10.5 10 Nordeste 15 Este 0 -- -- 86
2020-03-20 10:00:00 9.6 9 Nordeste 13 Nordeste 0 -- -- 90
2020-03-20 09:00:00 8.4 6 Norte 10 Norte 0 -- -- 94
2020-03-20 08:00:00 7.6 6 Noroeste 9 Norte 0 -- -- 95
2020-03-20 07:00:00 7.5 2 Nordeste 8 Noroeste 0 -- -- 94
2020-03-20 06:00:00 7.7 8 Oeste 12 Noroeste 0 -- -- 94
2020-03-20 05:00:00 8.3 5 Noroeste 9 Noroeste 0 -- -- 93
2020-03-20 04:00:00 8.4 7 Noroeste 9 Noroeste 0 -- -- 94
2020-03-20 03:00:00 8.5 3 Noroeste 7 Oeste 0 -- -- 92
2020-03-20 02:00:00 8.7 4 Oeste 6 Oeste 0 -- -- 92
2020-03-20 01:00:00 8.9 4 Noroeste 9 Oeste 0 -- -- 91
2020-03-20 00:00:00 8.2 6 Oeste 8 Noroeste 0 -- -- 92
2020-03-19 23:00:00 8.3 5 Oeste 7 Noroeste 0 -- -- 91
2020-03-19 22:00:00 8.7 2 Oeste 7 Noroeste 0 -- -- 88
2020-03-19 21:00:00 10.1 5 Oeste 6 Oeste 0 -- -- 84
2020-03-19 20:00:00 12.4 3 Sudeste 10 Sudeste 0 -- -- 73
2020-03-19 19:00:00 13.7 6 Sudeste 19 Sur 0 -- -- 71
2020-03-19 18:00:00 15.5 14 Sur 19 Sur 0 -- -- 64
2020-03-19 17:00:00 16.5 15 Este 21 Este 0 -- -- 63
2020-03-19 16:00:00 16.3 10 Sudeste 19 Sudeste 0 -- -- 62
2020-03-19 15:00:00 16.4 9 Sudeste 16 Sudeste 0 -- -- 63
2020-03-19 14:00:00 15.8 5 Nordeste 17 Este 0 -- -- 68
2020-03-19 13:00:00 14.9 11 Este 17 Este 0 -- -- 70
2020-03-19 12:00:00 13.8 8 Nordeste 18 Nordeste 0 -- -- 72
2020-03-19 11:00:00 12 7 Norte 14 Norte 0 -- -- 78
2020-03-19 10:00:00 10.2 10 Nordeste 14 Nordeste 0 -- -- 86
2020-03-19 09:00:00 7.9 4 Noroeste 9 Noroeste 0 -- -- 97
2020-03-19 08:00:00 5.4 8 Noroeste 10 Noroeste 0 -- -- 96
2020-03-19 07:00:00 5.6 6 Oeste 10 Noroeste 0 -- -- 95
2020-03-19 06:00:00 5.6 5 Noroeste 10 Noroeste 0 -- -- 95
2020-03-19 05:00:00 5.9 6 Noroeste 9 Noroeste 0 -- -- 95
2020-03-19 04:00:00 6.8 3 Noroeste 13 Oeste 0 -- -- 94
2020-03-19 03:00:00 7.2 11 Noroeste 14 Noroeste 0 -- -- 94
2020-03-19 02:00:00 6.8 7 Oeste 11 Noroeste 0 -- -- 93
2020-03-19 01:00:00 7.9 3 Noroeste 14 Noroeste 0 -- -- 94
2020-03-19 00:00:00 8.3 7 Noroeste 13 Oeste 0 -- -- 93
2020-03-18 23:00:00 9.1 12 Noroeste 13 Noroeste 0 -- -- 92
2020-03-18 22:00:00 9.9 4 Noroeste 12 Oeste 0 -- -- 91
2020-03-18 21:00:00 10.4 4 Oeste 5 Noroeste 0 -- -- 88
2020-03-18 20:00:00 13.4 2 Sur 5 Este 0 -- -- 78
2020-03-18 19:00:00 15.5 5 Este 9 Este 0 -- -- 71
2020-03-18 18:00:00 16.7 9 Este 20 Este 0 -- -- 64
2020-03-18 17:00:00 17.1 10 Nordeste 20 Este 0 -- -- 63
2020-03-18 16:00:00 17.1 13 Nordeste 21 Este 0 -- -- 61
2020-03-18 15:00:00 16.4 12 Nordeste 24 Este 0 -- -- 62
2020-03-18 14:00:00 15.3 13 Nordeste 22 Nordeste 0 -- -- 67
2020-03-18 13:00:00 13.8 11 Nordeste 21 Nordeste 0 -- -- 73
2020-03-18 12:00:00 12.5 12 Nordeste 23 Nordeste 0 -- -- 78
2020-03-18 11:00:00 10.7 11 Nordeste 18 Nordeste 0 -- -- 83
2020-03-18 10:00:00 8.8 13 Nordeste 20 Nordeste 0 -- -- 90
2020-03-18 09:00:00 7.3 9 Nordeste 15 Norte 0 -- -- 96
2020-03-18 08:00:00 5 4 Norte 11 Norte 0 -- -- 96
2020-03-18 07:00:00 4.8 5 Noroeste 10 Noroeste 0 -- -- 96
2020-03-18 06:00:00 4.8 9 Noroeste 11 Noroeste 0 -- -- 96
2020-03-18 05:00:00 5.2 8 Noroeste 10 Oeste 0 -- -- 95
2020-03-18 04:00:00 5.5 8 Oeste 11 Oeste 0 -- -- 96
2020-03-18 03:00:00 5.7 5 Oeste 10 Oeste 0 -- -- 95
2020-03-18 02:00:00 5.2 9 Noroeste 13 Noroeste 0 -- -- 95
2020-03-18 01:00:00 5.7 8 Noroeste 12 Noroeste 0 -- -- 94
2020-03-18 00:00:00 7.4 4 Noroeste 12 Norte 0 -- -- 89
2020-03-17 23:00:00 8.4 3 Nordeste 13 Norte 0 -- -- 89
2020-03-17 22:00:00 8.7 3 Noroeste 22 Nordeste 0 -- -- 88
2020-03-17 21:00:00 9.5 8 Norte 14 Norte 0 -- -- 87
2020-03-17 20:00:00 10.7 8 Norte 22 Nordeste 0 -- -- 83
2020-03-17 19:00:00 12.4 14 Nordeste 35 Este 0 -- -- 77
2020-03-17 18:00:00 13.7 26 Nordeste 36 Nordeste 0 -- -- 72
2020-03-17 17:00:00 14 25 Este 36 Este 0 -- -- 69
2020-03-17 16:00:00 14.5 23 Este 35 Este 0 -- -- 68
2020-03-17 15:00:00 13.1 27 Este 39 Este 0 -- -- 70
2020-03-17 14:00:00 13.4 31 Este 49 Este 0 -- -- 68
2020-03-17 13:00:00 12.3 29 Este 45 Este 0 -- -- 72
2020-03-17 12:00:00 11.9 32 Este 47 Nordeste 0 -- -- 70
2020-03-17 11:00:00 10.1 31 Nordeste 52 Este 0 -- -- 73
2020-03-17 10:00:00 8.4 23 Nordeste 43 Nordeste 0 -- -- 79
2020-03-17 09:00:00 7.1 21 Este 41 Nordeste 0 -- -- 80
2020-03-17 08:00:00 7 26 Nordeste 42 Este 0 -- -- 78
2020-03-17 07:00:00 5.9 4 Este 22 Este 0 -- -- 78
2020-03-17 06:00:00 5.8 10 Nordeste 21 Nordeste 0 -- -- 75
2020-03-17 05:00:00 5.8 12 Nordeste 21 Nordeste 0 -- -- 73
2020-03-17 04:00:00 5.5 9 Nordeste 19 Nordeste 0 -- -- 71
2020-03-17 03:00:00 5.9 13 Nordeste 28 Nordeste 0 -- -- 68
2020-03-17 02:00:00 6.4 15 Nordeste 29 Nordeste 0 -- -- 66
2020-03-17 01:00:00 6.4 18 Nordeste 32 Nordeste 0 -- -- 64
2020-03-17 00:00:00 6.4 18 Nordeste 31 Nordeste 0 -- -- 62
2020-03-16 23:00:00 6.4 20 Nordeste 35 Norte 0 -- -- 61
2020-03-16 22:00:00 6.5 23 Norte 48 Norte 0 -- -- 59
2020-03-16 21:00:00 7 21 Norte 49 Norte 0 -- -- 56
2020-03-16 20:00:00 8.1 24 Norte 42 Norte 0 -- -- 55
2020-03-16 19:00:00 8.8 15 Nordeste 40 Nordeste 0 -- -- 57
2020-03-16 18:00:00 9.2 23 Nordeste 37 Nordeste 0 -- -- 52
2020-03-16 17:00:00 9.9 24 Nordeste 47 Nordeste 0 -- -- 51
2020-03-16 16:00:00 10.3 28 Norte 53 Norte 0 -- -- 49
2020-03-16 15:00:00 9.6 31 Norte 50 Norte 0 -- -- 49
2020-03-16 14:00:00 9.5 29 Norte 46 Norte 0 -- -- 52
2020-03-16 13:00:00 8.7 27 Norte 41 Norte 0 -- -- 55
2020-03-16 12:00:00 7.2 26 Norte 47 Norte 0 -- -- 60
2020-03-16 11:00:00 6.5 26 Norte 46 Norte 0 -- -- 63
2020-03-16 10:00:00 6.2 28 Norte 49 Norte 0 -- -- 65
2020-03-16 09:00:00 4.2 21 Norte 34 Norte 0 -- -- 73
2020-03-16 08:00:00 3.7 17 Norte 30 Norte 0 -- -- 76
2020-03-16 07:00:00 3.1 19 Norte 39 Norte 0.2 -- -- 82
2020-03-16 06:00:00 2.6 19 Norte 40 Norte 0.4 -- -- 87
2020-03-16 05:00:00 2.9 19 Norte 32 Norte 0.2 -- -- 85
2020-03-16 04:00:00 2.1 13 Noroeste 22 Noroeste 1 -- -- 92
2020-03-16 03:00:00 2.1 10 Oeste 13 Noroeste 1 -- -- 89
2020-03-16 02:00:00 3.1 3 Noroeste 15 Noroeste 0.2 -- -- 80
2020-03-16 01:00:00 3.6 8 Oeste 13 Noroeste 0 -- -- 80
2020-03-16 00:00:00 3.2 7 Noroeste 21 Norte 0 -- -- 84
2020-03-15 23:00:00 2.8 18 Norte 36 Norte 0 -- -- 85
2020-03-15 22:00:00 2.7 21 Norte 37 Norte 0.2 -- -- 89
2020-03-15 21:00:00 5.7 24 Noroeste 33 Oeste 0 -- -- 81
2020-03-15 20:00:00 8.8 23 Oeste 34 Oeste 0 -- -- 82
2020-03-15 19:00:00 10.1 27 Oeste 42 Oeste 0 -- -- 68
2020-03-15 18:00:00 13.7 26 Oeste 45 Oeste 0 -- -- 48
2020-03-15 17:00:00 14.4 27 Oeste 42 Oeste 0 -- -- 49
2020-03-15 16:00:00 15.1 29 Oeste 45 Oeste 0 -- -- 47
2020-03-15 15:00:00 15.5 30 Oeste 44 Oeste 0 -- -- 45
2020-03-15 14:00:00 17 21 Sudoeste 37 Sudoeste 0 -- -- 44
2020-03-15 13:00:00 16.9 22 Sudoeste 31 Sudoeste 0 -- -- 46
2020-03-15 12:00:00 15 16 Sudoeste 26 Sudoeste 0 -- -- 49
2020-03-15 11:00:00 10.5 4 Este 8 Este 0 -- -- 69
2020-03-15 10:00:00 6.9 3 Este 5 Este 0 -- -- 79
2020-03-15 09:00:00 3 0 Calma 4 Norte 0 -- -- 95
2020-03-15 08:00:00 -0.4 0 Calma 2 Noroeste 0 -- -- 94
2020-03-15 07:00:00 -0.3 0 Calma 3 Noroeste 0 -- -- 93
2020-03-15 06:00:00 0.3 2 Oeste 4 Oeste 0 -- -- 92
2020-03-15 05:00:00 0.8 4 Oeste 6 Oeste 0 -- -- 92
2020-03-15 04:00:00 1.8 0 Calma 2 Sur 0 -- -- 91
2020-03-15 03:00:00 2.2 0 Calma 6 Oeste 0 -- -- 90
2020-03-15 02:00:00 2.8 0 Calma 5 Oeste 0 -- -- 89
2020-03-15 01:00:00 3.6 0 Calma 3 Oeste 0 -- -- 89
2020-03-15 00:00:00 4.2 2 Oeste 7 Oeste 0 -- -- 88
2020-03-14 23:00:00 4.9 6 Oeste 8 Oeste 0 -- -- 87
2020-03-14 22:00:00 6.8 3 Norte 9 Sur 0 -- -- 78
2020-03-14 21:00:00 9.1 9 Sur 10 Sur 0 -- -- 64
2020-03-14 20:00:00 10.3 10 Sur 11 Sur 0 -- -- 65
2020-03-14 19:00:00 15.1 6 Sudeste 12 Sudeste 0 -- -- 51
2020-03-14 18:00:00 17 9 Sudeste 17 Este 0 -- -- 36
2020-03-14 17:00:00 17.1 8 Este 15 Sudeste 0 -- -- 40
2020-03-14 16:00:00 16.4 8 Este 20 Este 0 -- -- 41
2020-03-14 15:00:00 15.5 7 Sudeste 13 Este 0 -- -- 47
2020-03-14 14:00:00 13.7 5 Este 14 Este 0 -- -- 51
2020-03-14 13:00:00 12 5 Sudeste 13 Nordeste 0 -- -- 55
2020-03-14 12:00:00 10.5 6 Este 12 Este 0 -- -- 62
2020-03-14 11:00:00 8.9 5 Este 10 Este 0 -- -- 68
2020-03-14 10:00:00 7.1 4 Este 9 Este 0 -- -- 81
2020-03-14 09:00:00 3.9 0 Calma 10 Oeste 0 -- -- 97
2020-03-14 08:00:00 -0.1 4 Noroeste 9 Oeste 0 -- -- 96
2020-03-14 07:00:00 -0.3 2 Oeste 5 Oeste 0 -- -- 95
2020-03-14 06:00:00 0.3 0 Calma 8 Noroeste 0 -- -- 94
2020-03-14 05:00:00 0.9 4 Oeste 10 Oeste 0 -- -- 95
2020-03-14 04:00:00 1.4 6 Oeste 12 Oeste 0 -- -- 94
2020-03-14 03:00:00 2 5 Noroeste 10 Oeste 0 -- -- 94
2020-03-14 02:00:00 2.4 6 Noroeste 8 Noroeste 0 -- -- 93
2020-03-14 01:00:00 3.3 4 Oeste 9 Noroeste 0 -- -- 93
2020-03-14 00:00:00 4 6 Noroeste 8 Norte 0 -- -- 91
2020-03-13 23:00:00 5.7 0 Calma 8 Nordeste 0 -- -- 85
2020-03-13 22:00:00 6.8 3 Nordeste 7 Este 0 -- -- 84
2020-03-13 21:00:00 8.2 0 Calma 12 Este 0 -- -- 81
2020-03-13 20:00:00 10.5 8 Este 17 Este 0 -- -- 74
2020-03-13 19:00:00 13.1 13 Este 21 Este 0 -- -- 68
2020-03-13 18:00:00 14.7 14 Este 20 Este 0 -- -- 62
2020-03-13 17:00:00 15.3 9 Este 23 Este 0 -- -- 60
2020-03-13 16:00:00 15.4 12 Este 23 Nordeste 0 -- -- 58
2020-03-13 15:00:00 14.7 12 Nordeste 27 Este 0 -- -- 61
2020-03-13 14:00:00 13.6 15 Nordeste 28 Nordeste 0 -- -- 66
2020-03-13 13:00:00 12.8 16 Nordeste 27 Este 0 -- -- 69
2020-03-13 12:00:00 11.8 15 Nordeste 26 Nordeste 0 -- -- 70
2020-03-13 11:00:00 10.5 16 Este 30 Nordeste 0 -- -- 75
2020-03-13 10:00:00 9.2 16 Nordeste 31 Nordeste 0 -- -- 78
2020-03-13 09:00:00 7.6 10 Nordeste 18 Nordeste 0 -- -- 85
2020-03-13 08:00:00 6.5 5 Nordeste 17 Nordeste 0 -- -- 90
2020-03-13 07:00:00 6.6 10 Nordeste 24 Nordeste 0 -- -- 88
2020-03-13 06:00:00 6.3 10 Nordeste 20 Nordeste 0 -- -- 89
2020-03-13 05:00:00 6.4 10 Nordeste 20 Nordeste 0 -- -- 88
2020-03-13 04:00:00 6.4 9 Nordeste 15 Nordeste 0 -- -- 88
2020-03-13 03:00:00 6.5 5 Norte 12 Norte 0 -- -- 88
2020-03-13 02:00:00 6.8 5 Nordeste 13 Nordeste 0 -- -- 88
2020-03-13 01:00:00 7.3 5 Nordeste 13 Nordeste 0 -- -- 87
2020-03-13 00:00:00 8.1 8 Nordeste 28 Este 0 -- -- 85
2020-03-12 23:00:00 9.4 19 Este 38 Este 0 -- -- 83
2020-03-12 22:00:00 10.5 15 Nordeste 26 Nordeste 0 -- -- 81
2020-03-12 21:00:00 12 13 Nordeste 19 Nordeste 0 -- -- 79
2020-03-12 20:00:00 14.8 10 Este 22 Este 0 -- -- 78
2020-03-12 19:00:00 17.1 4 Sudeste 7 Este 0 -- -- 71
2020-03-12 18:00:00 18.9 6 Este 10 Este 0 -- -- 59
2020-03-12 17:00:00 19 8 Este 12 Este 0 -- -- 55
2020-03-12 16:00:00 19.3 6 Este 13 Este 0 -- -- 51
2020-03-12 15:00:00 17.7 8 Este 11 Este 0 -- -- 59
2020-03-12 14:00:00 17.7 5 Este 10 Sudeste 0 -- -- 61
2020-03-12 13:00:00 16.5 4 Sudeste 9 Sudeste 0 -- -- 62
2020-03-12 12:00:00 15.3 2 Sudeste 5 Sudeste 0 -- -- 63
2020-03-12 11:00:00 13.3 0 Calma 6 Sudeste 0 -- -- 69
2020-03-12 10:00:00 10.2 0 Calma 2 Este 0 -- -- 86
2020-03-12 09:00:00 8.8 0 Calma 3 Sudoeste 0 -- -- 93
2020-03-12 08:00:00 7.7 0 Calma 3 Nordeste 0 -- -- 92
2020-03-12 07:00:00 7.8 0 Calma 3 Sudeste 0 -- -- 90
2020-03-12 06:00:00 8.3 2 Oeste 4 Oeste 0 -- -- 91
2020-03-12 05:00:00 8.6 0 Calma 5 Oeste 0 -- -- 89
2020-03-12 04:00:00 8.6 2 Oeste 5 Noroeste 0 -- -- 88
2020-03-12 03:00:00 8.9 4 Oeste 8 Noroeste 0 -- -- 86
2020-03-12 02:00:00 9.1 6 Oeste 9 Oeste 0 -- -- 84
2020-03-12 01:00:00 9.5 0 Calma 5 Noroeste 0 -- -- 82
2020-03-12 00:00:00 10.8 0 Calma 11 Noroeste 0 -- -- 76
2020-03-11 23:00:00 13.2 10 Noroeste 12 Noroeste 0 -- -- 67
2020-03-11 22:00:00 14.5 0 Calma 18 Sudoeste 0 -- -- 59
2020-03-11 21:00:00 16.1 18 Sudoeste 19 Sudoeste 0 -- -- 55
2020-03-11 20:00:00 17.5 17 Oeste 22 Sudoeste 0 -- -- 50
2020-03-11 19:00:00 19.5 15 Sudoeste 27 Sudoeste 0 -- -- 44
2020-03-11 18:00:00 21.6 22 Oeste 35 Sudoeste 0 -- -- 38
2020-03-11 17:00:00 23.2 23 Oeste 35 Oeste 0 -- -- 34
2020-03-11 16:00:00 23.6 22 Sudoeste 34 Sudoeste 0 -- -- 35
2020-03-11 15:00:00 22.9 15 Sudoeste 26 Sudoeste 0 -- -- 34
2020-03-11 14:00:00 20.9 15 Sur 24 Sur 0 -- -- 40
2020-03-11 13:00:00 19.3 8 Sur 15 Este 0 -- -- 44
2020-03-11 12:00:00 15.4 7 Este 13 Este 0 -- -- 61
2020-03-11 11:00:00 12.3 5 Este 9 Este 0 -- -- 62
2020-03-11 10:00:00 8.9 4 Sudeste 6 Sudeste 0 -- -- 71
2020-03-11 09:00:00 5.2 2 Este 4 Este 0 -- -- 85
2020-03-11 08:00:00 2.1 3 Este 5 Oeste 0 -- -- 92
2020-03-11 07:00:00 2.2 5 Oeste 6 Oeste 0 -- -- 92
2020-03-11 06:00:00 2.4 4 Noroeste 6 Noroeste 0 -- -- 91
2020-03-11 05:00:00 3.4 3 Oeste 8 Norte 0 -- -- 88
2020-03-11 04:00:00 4.6 2 Sudoeste 6 Nordeste 0 -- -- 80
2020-03-11 03:00:00 7.5 2 Nordeste 15 Oeste 0 -- -- 67
2020-03-11 02:00:00 10.5 11 Oeste 23 Oeste 0 -- -- 57
2020-03-11 01:00:00 10.2 4 Oeste 20 Norte 0 -- -- 53
2020-03-11 00:00:00 11.4 11 Oeste 23 Oeste 0 -- -- 47
2020-03-10 23:00:00 11.4 11 Oeste 24 Oeste 0 -- -- 50
2020-03-10 22:00:00 14.4 20 Oeste 34 Oeste 0 -- -- 35
2020-03-10 21:00:00 14.9 21 Oeste 41 Oeste 0 -- -- 33
2020-03-10 20:00:00 15 30 Sudoeste 37 Sudoeste 0 -- -- 32
2020-03-10 19:00:00 18.9 8 Oeste 26 Oeste 0 -- -- 24
2020-03-10 18:00:00 20.4 20 Oeste 32 Oeste 0 -- -- 23
2020-03-10 17:00:00 21.1 18 Oeste 34 Sudoeste 0 -- -- 26
2020-03-10 16:00:00 21.1 20 Sudoeste 36 Oeste 0 -- -- 33
2020-03-10 15:00:00 20.7 24 Sudoeste 36 Oeste 0 -- -- 35
2020-03-10 14:00:00 20.1 22 Sudoeste 30 Sudoeste 0 -- -- 37
2020-03-10 13:00:00 18.5 21 Oeste 30 Oeste 0 -- -- 41
2020-03-10 12:00:00 16.2 5 Norte 15 Sur 0 -- -- 50
2020-03-10 11:00:00 13.5 0 Calma 10 Sudeste 0 -- -- 64
2020-03-10 10:00:00 9.2 4 Nordeste 11 Oeste 0 -- -- 83
2020-03-10 09:00:00 8.3 12 Oeste 17 Oeste 0 -- -- 80
2020-03-10 08:00:00 4.6 4 Oeste 10 Noroeste 0 -- -- 90
2020-03-10 07:00:00 4.2 5 Oeste 10 Oeste 0 -- -- 91
2020-03-10 06:00:00 5 0 Calma 27 Oeste 0 -- -- 86
2020-03-10 05:00:00 6.1 8 Oeste 23 Oeste 0 -- -- 91
2020-03-10 04:00:00 5.7 3 Nordeste 16 Noroeste 0 -- -- 85
2020-03-10 03:00:00 4.3 0 Calma 4 Norte 0 -- -- 92
2020-03-10 02:00:00 4.8 2 Norte 7 Oeste 0 -- -- 90
2020-03-10 01:00:00 5.2 3 Noroeste 12 Oeste 0 -- -- 89
2020-03-10 00:00:00 5.8 8 Noroeste 10 Oeste 0 -- -- 87
2020-03-09 23:00:00 7.6 5 Sur 13 Noroeste 0 -- -- 79
2020-03-09 22:00:00 9.4 9 Noroeste 15 Noroeste 0 -- -- 73
2020-03-09 21:00:00 10.5 12 Oeste 23 Sudoeste 0 -- -- 68
2020-03-09 20:00:00 11.8 16 Sudoeste 22 Sudoeste 0 -- -- 63
2020-03-09 19:00:00 14 16 Sudoeste 25 Sudoeste 0 -- -- 56
2020-03-09 18:00:00 15.5 16 Sudoeste 27 Sudoeste 0 -- -- 48
2020-03-09 17:00:00 16.2 14 Sudoeste 22 Sudoeste 0 -- -- 45
2020-03-09 16:00:00 15.7 10 Sudoeste 19 Sudoeste 0 -- -- 50
2020-03-09 15:00:00 14.7 5 Sudeste 24 Sudeste 0 -- -- 49
2020-03-09 14:00:00 13.6 6 Sudeste 16 Sur 0 -- -- 50
2020-03-09 13:00:00 12.2 10 Este 18 Este 0 -- -- 56
2020-03-09 12:00:00 10.7 8 Este 14 Este 0 -- -- 59
2020-03-09 11:00:00 9.6 6 Este 12 Este 0 -- -- 62
2020-03-09 10:00:00 7.5 2 Noroeste 8 Oeste 0 -- -- 68
2020-03-09 09:00:00 2.7 5 Noroeste 10 Noroeste 0 -- -- 95
2020-03-09 08:00:00 1.1 2 Oeste 9 Norte 0 -- -- 92
2020-03-09 07:00:00 1.8 3 Oeste 10 Noroeste 0 -- -- 91
2020-03-09 06:00:00 3.2 5 Noroeste 17 Noroeste 0 -- -- 88
2020-03-09 05:00:00 3.2 3 Oeste 15 Oeste 0 -- -- 90
2020-03-09 04:00:00 3.8 3 Noroeste 16 Oeste 0 -- -- 87
2020-03-09 03:00:00 4.8 9 Oeste 19 Noroeste 0 -- -- 84
2020-03-09 02:00:00 5.2 12 Noroeste 24 Oeste 0 -- -- 83
2020-03-09 01:00:00 5.8 14 Oeste 24 Oeste 0 -- -- 83
2020-03-09 00:00:00 5.9 9 Oeste 29 Oeste 0 -- -- 84
2020-03-08 23:00:00 7.5 21 Oeste 27 Oeste 0 -- -- 83
2020-03-08 22:00:00 8.4 13 Oeste 33 Oeste 0 -- -- 87
2020-03-08 21:00:00 9.3 24 Oeste 44 Oeste 0 -- -- 85
2020-03-08 20:00:00 10.1 30 Oeste 42 Oeste 0 -- -- 81
2020-03-08 19:00:00 11.5 33 Oeste 48 Oeste 0 -- -- 72
2020-03-08 18:00:00 13.1 35 Oeste 52 Oeste 0 -- -- 67
2020-03-08 17:00:00 14.1 38 Oeste 55 Oeste 0 -- -- 65
2020-03-08 16:00:00 14.2 33 Oeste 44 Oeste 0 -- -- 67
2020-03-08 15:00:00 13.2 28 Oeste 41 Sudoeste 0 -- -- 70
2020-03-08 14:00:00 11.4 26 Oeste 32 Oeste 0 -- -- 74
2020-03-08 13:00:00 10 16 Oeste 30 Oeste 0 -- -- 75
2020-03-08 12:00:00 9 21 Oeste 35 Oeste 0 -- -- 78
2020-03-08 11:00:00 7.8 19 Oeste 31 Oeste 0 -- -- 82
2020-03-08 10:00:00 5.7 7 Oeste 17 Sudoeste 0 -- -- 88
2020-03-08 09:00:00 4.8 15 Oeste 21 Oeste 0 -- -- 91
2020-03-08 08:00:00 3.6 6 Oeste 14 Sudoeste 0 -- -- 93
2020-03-08 07:00:00 3 9 Sudoeste 19 Oeste 0 -- -- 90
2020-03-08 06:00:00 4.6 13 Sudoeste 21 Oeste 0 -- -- 88
2020-03-08 05:00:00 4 13 Oeste 19 Oeste 0 -- -- 91
2020-03-08 04:00:00 5 14 Oeste 21 Oeste 0 -- -- 84
2020-03-08 03:00:00 4 6 Sudoeste 13 Sudoeste 0 -- -- 86
2020-03-08 02:00:00 5.4 10 Oeste 23 Oeste 0 -- -- 83
2020-03-08 01:00:00 5.9 7 Oeste 21 Noroeste 0 -- -- 80
2020-03-08 00:00:00 7.4 9 Noroeste 29 Oeste 0 -- -- 73
2020-03-07 23:00:00 8 21 Sudoeste 29 Sudoeste 0 -- -- 73
2020-03-07 22:00:00 8 19 Sudoeste 27 Sudoeste 0 -- -- 75
2020-03-07 21:00:00 9 20 Sudoeste 26 Sudoeste 0 -- -- 71
2020-03-07 20:00:00 9.7 15 Sudoeste 21 Sudoeste 0 -- -- 66
2020-03-07 19:00:00 12.6 9 Oeste 24 Oeste 0 -- -- 59
2020-03-07 18:00:00 14.2 14 Oeste 24 Sudoeste 0 -- -- 55
2020-03-07 17:00:00 14.9 14 Sudoeste 24 Sudoeste 0 -- -- 49
2020-03-07 16:00:00 14.5 15 Sudoeste 24 Sudoeste 0 -- -- 51
2020-03-07 15:00:00 13.8 16 Sudoeste 27 Sudoeste 0 -- -- 51
2020-03-07 14:00:00 13.3 10 Sudoeste 19 Sudoeste 0 -- -- 51
2020-03-07 13:00:00 12.2 4 Sudeste 11 Nordeste 0 -- -- 56
2020-03-07 12:00:00 10.9 6 Nordeste 13 Nordeste 0 -- -- 59
2020-03-07 11:00:00 8.7 3 Norte 8 Noroeste 0 -- -- 69
2020-03-07 10:00:00 6.7 0 Calma 3 Este 0 -- -- 80
2020-03-07 09:00:00 2.2 0 Calma 8 Sudeste 0 -- -- 92
2020-03-07 08:00:00 2.1 3 Oeste 6 Sudeste 0 -- -- 90
2020-03-07 07:00:00 2.4 2 Este 14 Oeste 0 -- -- 88
2020-03-07 06:00:00 2.9 11 Noroeste 16 Noroeste 0 -- -- 87
2020-03-07 05:00:00 3.5 10 Noroeste 17 Noroeste 0 -- -- 85
2020-03-07 04:00:00 3.3 10 Noroeste 18 Oeste 0 -- -- 84
2020-03-07 03:00:00 3.6 13 Noroeste 23 Oeste 0 -- -- 82
2020-03-07 02:00:00 3.8 11 Noroeste 18 Oeste 0 -- -- 79
2020-03-07 01:00:00 2.6 9 Noroeste 15 Oeste 0 -- -- 84
2020-03-07 00:00:00 3.9 11 Noroeste 19 Noroeste 0 -- -- 74
2020-03-06 23:00:00 3.4 15 Noroeste 18 Noroeste 0 -- -- 75
2020-03-06 22:00:00 3.1 11 Noroeste 14 Noroeste 0 -- -- 78
2020-03-06 21:00:00 3.5 6 Oeste 13 Oeste 0 -- -- 77
2020-03-06 20:00:00 5.2 6 Oeste 24 Noroeste 0 -- -- 62
2020-03-06 19:00:00 8.1 18 Noroeste 32 Noroeste 0 -- -- 52
2020-03-06 18:00:00 10 18 Noroeste 36 Noroeste 0 -- -- 48
2020-03-06 17:00:00 10.8 21 Noroeste 41 Noroeste 0 -- -- 44
2020-03-06 16:00:00 11.2 25 Noroeste 45 Noroeste 0 -- -- 40
2020-03-06 15:00:00 11 30 Noroeste 45 Noroeste 0 -- -- 41
2020-03-06 14:00:00 10.3 26 Noroeste 47 Noroeste 0 -- -- 45
2020-03-06 13:00:00 9.3 32 Noroeste 58 Noroeste 0 -- -- 46
2020-03-06 12:00:00 8.8 35 Noroeste 54 Norte 0 -- -- 50
2020-03-06 11:00:00 8.1 31 Noroeste 50 Noroeste 0 -- -- 55
2020-03-06 10:00:00 6.7 24 Oeste 37 Oeste 0 -- -- 73
2020-03-06 09:00:00 4.6 25 Oeste 36 Oeste 0 -- -- 79
2020-03-06 08:00:00 3.1 20 Oeste 38 Oeste 0 -- -- 85
2020-03-06 07:00:00 3.2 17 Oeste 38 Oeste 0 -- -- 83
2020-03-06 06:00:00 3.8 24 Oeste 44 Oeste 0 -- -- 83
2020-03-06 05:00:00 4.1 20 Oeste 41 Oeste 0 -- -- 87
2020-03-06 04:00:00 4.7 23 Oeste 34 Oeste 0 -- -- 90
2020-03-06 03:00:00 5.2 21 Oeste 40 Oeste 0.8 -- -- 91
2020-03-06 02:00:00 5.3 33 Oeste 49 Sudoeste 0 -- -- 88
2020-03-06 01:00:00 5.1 33 Sudoeste 45 Sudoeste 0 -- -- 86
2020-03-06 00:00:00 5.4 27 Oeste 43 Oeste 0 -- -- 82
2020-03-05 23:00:00 5.4 23 Oeste 37 Oeste 0 -- -- 83
2020-03-05 22:00:00 5.5 18 Oeste 30 Oeste 0 -- -- 81
2020-03-05 21:00:00 6.3 21 Oeste 39 Oeste 0 -- -- 79
2020-03-05 20:00:00 7.4 22 Oeste 42 Oeste 0 -- -- 74
2020-03-05 19:00:00 9.3 33 Oeste 45 Oeste 0 -- -- 68
2020-03-05 18:00:00 11.2 25 Noroeste 46 Oeste 0 -- -- 59
2020-03-05 17:00:00 12.8 31 Oeste 47 Oeste 0 -- -- 54
2020-03-05 16:00:00 13 34 Oeste 49 Oeste 0 -- -- 59
2020-03-05 15:00:00 12 34 Oeste 59 Oeste 0 -- -- 63
2020-03-05 14:00:00 12.2 40 Oeste 60 Oeste 0 -- -- 64
2020-03-05 13:00:00 11.3 36 Oeste 58 Oeste 0 -- -- 69
2020-03-05 12:00:00 9.9 40 Oeste 59 Oeste 0 -- -- 74
2020-03-05 11:00:00 8.8 36 Oeste 57 Sudoeste 0 -- -- 79
2020-03-05 10:00:00 8.2 36 Oeste 57 Oeste 0 -- -- 81
2020-03-05 09:00:00 7 41 Oeste 68 Oeste 0 -- -- 86
2020-03-05 08:00:00 9.2 44 Oeste 58 Oeste 1 -- -- 86
2020-03-05 07:00:00 10.2 34 Sudoeste 58 Sudoeste 0.4 -- -- 93
2020-03-05 06:00:00 10.1 36 Sudoeste 54 Sudoeste 0.2 -- -- 92
2020-03-05 05:00:00 10.6 33 Sudoeste 64 Sudoeste 0 -- -- 91
2020-03-05 04:00:00 10.9 33 Sudoeste 52 Sudoeste 0 -- -- 89
2020-03-05 03:00:00 11.2 22 Sudoeste 39 Sudoeste 0 -- -- 90
2020-03-05 02:00:00 11.2 20 Sudoeste 38 Sudoeste 0.2 -- -- 91
2020-03-05 01:00:00 11.2 22 Sudoeste 36 Sudoeste 0 -- -- 93
2020-03-05 00:00:00 11.2 22 Sudoeste 33 Sudoeste 0 -- -- 91
2020-03-04 23:00:00 11.5 13 Sudoeste 30 Sudoeste 0 -- -- 89
2020-03-04 22:00:00 11.5 18 Sudoeste 32 Sudoeste 0 -- -- 89
2020-03-04 21:00:00 12 20 Sudoeste 28 Sudoeste 0 -- -- 84
2020-03-04 20:00:00 12.5 18 Oeste 34 Sudoeste 0 -- -- 79
2020-03-04 19:00:00 12.9 14 Sudoeste 40 Oeste 0 -- -- 78
2020-03-04 18:00:00 13.7 22 Oeste 38 Sudoeste 0 -- -- 76
2020-03-04 17:00:00 13.9 21 Oeste 37 Sudoeste 0 -- -- 75
2020-03-04 16:00:00 12.4 21 Sudoeste 36 Oeste 0 -- -- 86
2020-03-04 15:00:00 13.2 23 Sudoeste 41 Sudoeste 0 -- -- 77
2020-03-04 14:00:00 12.8 31 Sudoeste 42 Sudoeste 0 -- -- 82
2020-03-04 13:00:00 14.2 27 Sudoeste 39 Sudoeste 0 -- -- 74
2020-03-04 12:00:00 12.9 27 Oeste 38 Oeste 0 -- -- 78
2020-03-04 11:00:00 12.2 24 Oeste 37 Oeste 0 -- -- 84
2020-03-04 10:00:00 10.3 17 Oeste 23 Oeste 0 -- -- 93
2020-03-04 09:00:00 10.3 14 Oeste 28 Oeste 0 -- -- 91
2020-03-04 08:00:00 10 18 Oeste 32 Oeste 0 -- -- 90
2020-03-04 07:00:00 10.3 20 Sudoeste 32 Oeste 0 -- -- 90
2020-03-04 06:00:00 10.5 20 Oeste 40 Sudoeste 0 -- -- 90
2020-03-04 05:00:00 11 20 Oeste 34 Oeste 0 -- -- 90
2020-03-04 04:00:00 11.2 21 Oeste 32 Oeste 0 -- -- 90
2020-03-04 03:00:00 11.8 16 Sudoeste 31 Oeste 0 -- -- 88
2020-03-04 02:00:00 12 26 Oeste 39 Oeste 0 -- -- 86
2020-03-04 01:00:00 11.8 13 Oeste 28 Oeste 0 -- -- 89
2020-03-04 00:00:00 11.9 16 Oeste 25 Sudoeste 0 -- -- 89
2020-03-03 23:00:00 11.4 13 Oeste 23 Sudoeste 0 -- -- 88
2020-03-03 22:00:00 11.1 13 Oeste 33 Oeste 0 -- -- 86
2020-03-03 21:00:00 11.6 22 Oeste 45 Oeste 0 -- -- 82
2020-03-03 20:00:00 12 18 Oeste 35 Oeste 0 -- -- 77
2020-03-03 19:00:00 13.6 19 Oeste 44 Oeste 0 -- -- 66
2020-03-03 18:00:00 15.1 32 Oeste 51 Oeste 0 -- -- 66
2020-03-03 17:00:00 15.7 37 Oeste 55 Oeste 0 -- -- 64
2020-03-03 16:00:00 15.7 37 Oeste 60 Oeste 0 -- -- 63
2020-03-03 15:00:00 16 40 Oeste 61 Oeste 0 -- -- 66
2020-03-03 14:00:00 15.5 45 Oeste 63 Oeste 0 -- -- 69
2020-03-03 13:00:00 14.1 43 Oeste 67 Oeste 0 -- -- 78
2020-03-03 12:00:00 13.2 46 Oeste 71 Oeste 0 -- -- 79
2020-03-03 11:00:00 11.6 42 Oeste 68 Oeste 0 -- -- 83
2020-03-03 10:00:00 9.6 40 Oeste 65 Oeste 0 -- -- 88
2020-03-03 09:00:00 7.9 35 Sudoeste 64 Oeste 0 -- -- 91
2020-03-03 08:00:00 7.5 44 Oeste 65 Oeste 0 -- -- 89
2020-03-03 07:00:00 7.1 43 Oeste 60 Sudoeste 0 -- -- 90
2020-03-03 06:00:00 6.3 28 Sudoeste 49 Sudoeste 0 -- -- 92
2020-03-03 05:00:00 5.4 21 Sudoeste 34 Sudoeste 0 -- -- 92
2020-03-03 04:00:00 5 16 Sudoeste 32 Sudoeste 0 -- -- 92
2020-03-03 03:00:00 5.2 19 Sudoeste 30 Sudoeste 0 -- -- 86
2020-03-03 02:00:00 5.2 22 Sudoeste 31 Sudoeste 0 -- -- 83
2020-03-03 01:00:00 5.1 19 Sudoeste 29 Sudoeste 0 -- -- 82
2020-03-03 00:00:00 4.6 16 Sudoeste 29 Oeste 0 -- -- 81
2020-03-02 23:00:00 4.3 15 Sudoeste 40 Sudoeste 0 -- -- 77
2020-03-02 22:00:00 4.9 27 Oeste 39 Oeste 0 -- -- 73
2020-03-02 21:00:00 5.1 20 Oeste 40 Oeste 0 -- -- 71
2020-03-02 20:00:00 5.7 21 Oeste 39 Oeste 0 -- -- 71
2020-03-02 19:00:00 6.8 28 Oeste 48 Oeste 0 -- -- 65
2020-03-02 18:00:00 7.7 27 Oeste 47 Noroeste 0 -- -- 60
2020-03-02 17:00:00 9 32 Oeste 51 Oeste 0 -- -- 49
2020-03-02 16:00:00 9.1 34 Oeste 47 Oeste 0 -- -- 54
2020-03-02 15:00:00 8.1 33 Noroeste 55 Noroeste 0 -- -- 58
2020-03-02 14:00:00 7.7 40 Noroeste 64 Oeste 0 -- -- 63
2020-03-02 13:00:00 7.8 37 Noroeste 68 Oeste 0 -- -- 58
2020-03-02 12:00:00 7.7 40 Oeste 59 Oeste 0 -- -- 67
2020-03-02 11:00:00 6.1 35 Oeste 53 Oeste 0 -- -- 81
2020-03-02 10:00:00 6.3 33 Oeste 48 Oeste 0 -- -- 80
2020-03-02 09:00:00 5.5 33 Oeste 52 Oeste 0 -- -- 83
2020-03-02 08:00:00 5.4 37 Oeste 55 Oeste 0 -- -- 81
2020-03-02 07:00:00 6.4 39 Oeste 64 Oeste 0 -- -- 79
2020-03-02 06:00:00 7.2 40 Oeste 76 Oeste 0 -- -- 77
2020-03-02 05:00:00 8.5 49 Oeste 91 Oeste 0 -- -- 77
2020-03-02 04:00:00 10.9 54 Oeste 89 Oeste 0.4 -- -- 82
2020-03-02 03:00:00 10.9 50 Sudoeste 78 Sudoeste 0.6 -- -- 91
2020-03-02 02:00:00 10.5 48 Sudoeste 77 Sudoeste 0.6 -- -- 92
2020-03-02 01:00:00 10.5 48 Sudoeste 67 Sudoeste 2.8 -- -- 91
2020-03-02 00:00:00 10.5 42 Sudoeste 63 Sudoeste 1.8 -- -- 90
2020-03-01 23:00:00 10 37 Sudoeste 59 Sudoeste 2.4 -- -- 92
2020-03-01 22:00:00 8.8 21 Sudoeste 36 Sudoeste 1.6 -- -- 93
2020-03-01 21:00:00 9 21 Oeste 40 Oeste 2.6 -- -- 91
2020-03-01 20:00:00 9.4 23 Oeste 44 Oeste 1.8 -- -- 89
2020-03-01 19:00:00 10.7 35 Sudoeste 49 Oeste 0 -- -- 79
2020-03-01 18:00:00 12.2 29 Oeste 53 Sudoeste 0 -- -- 59
2020-03-01 17:00:00 13.7 32 Oeste 58 Oeste 0 -- -- 53
2020-03-01 16:00:00 14.2 36 Oeste 63 Oeste 0 -- -- 55
2020-03-01 15:00:00 14.2 39 Oeste 58 Sudoeste 0 -- -- 59
2020-03-01 14:00:00 13.5 48 Sudoeste 69 Sudoeste 0 -- -- 59
2020-03-01 13:00:00 13.3 37 Oeste 60 Oeste 0 -- -- 68
2020-03-01 12:00:00 12.3 37 Oeste 55 Oeste 0 -- -- 73
2020-03-01 11:00:00 10.4 32 Oeste 49 Sudoeste 0 -- -- 82
2020-03-01 10:00:00 9.5 35 Oeste 49 Sudoeste 0 -- -- 87
2020-03-01 09:00:00 8.2 28 Sudoeste 47 Sudoeste 0.2 -- -- 91
2020-03-01 08:00:00 7.6 26 Sudoeste 42 Oeste 0.6 -- -- 92
2020-03-01 07:00:00 7 28 Sudoeste 44 Sudoeste 0.4 -- -- 93
2020-03-01 06:00:00 6.5 30 Sudoeste 44 Sudoeste 0 -- -- 92
2020-03-01 05:00:00 6.3 24 Sudoeste 33 Sudoeste 0 -- -- 88
2020-03-01 04:00:00 6.3 21 Sudoeste 37 Sudoeste 0 -- -- 87
2020-03-01 03:00:00 6.2 24 Sudoeste 34 Sudoeste 0 -- -- 90
2020-03-01 02:00:00 6.4 24 Sudoeste 38 Sudoeste 0 -- -- 91
2020-03-01 01:00:00 6.6 25 Sudoeste 40 Oeste 0 -- -- 89
2020-03-01 00:00:00 6.7 25 Sudoeste 40 Sudoeste 0 -- -- 88
2020-02-29 23:00:00 7.3 21 Sudoeste 33 Sudoeste 0 -- -- 87
2020-02-29 22:00:00 7.4 15 Sudoeste 35 Sudoeste 0 -- -- 85
2020-02-29 21:00:00 8.1 21 Oeste 36 Sudoeste 0 -- -- 77
2020-02-29 20:00:00 8.6 24 Sudoeste 39 Oeste 0 -- -- 70
2020-02-29 19:00:00 9.2 29 Sudoeste 47 Oeste 0 -- -- 66
2020-02-29 18:00:00 10 35 Oeste 51 Oeste 0 -- -- 59
2020-02-29 17:00:00 10.6 37 Oeste 58 Oeste 0 -- -- 55
2020-02-29 16:00:00 11.3 40 Oeste 63 Oeste 0 -- -- 58
2020-02-29 15:00:00 11.2 43 Oeste 64 Sudoeste 0 -- -- 55
2020-02-29 14:00:00 12.2 40 Oeste 64 Oeste 0 -- -- 53
2020-02-29 13:00:00 11.1 41 Sudoeste 62 Oeste 0 -- -- 66
2020-02-29 12:00:00 10 31 Oeste 48 Oeste 0 -- -- 84
2020-02-29 11:00:00 10.5 27 Oeste 50 Sudoeste 0 -- -- 90
2020-02-29 10:00:00 9.3 24 Sudoeste 48 Sudoeste 0 -- -- 92
2020-02-29 09:00:00 8.7 31 Sudoeste 52 Sudoeste 0 -- -- 92
2020-02-29 08:00:00 8.4 26 Sudoeste 53 Sudoeste 0 -- -- 90
2020-02-29 07:00:00 8.7 37 Sudoeste 58 Sudoeste 0 -- -- 85
2020-02-29 06:00:00 7.9 24 Sudoeste 37 Sudoeste 0 -- -- 84
2020-02-29 05:00:00 7.3 13 Sudoeste 38 Sudoeste 0 -- -- 80
2020-02-29 04:00:00 7.6 23 Sudoeste 45 Sudoeste 0 -- -- 73
2020-02-29 03:00:00 8 22 Sudoeste 34 Sudoeste 0 -- -- 73
2020-02-29 02:00:00 7.9 11 Oeste 21 Sudoeste 0 -- -- 72
2020-02-29 01:00:00 8.5 6 Sudoeste 20 Sudoeste 0 -- -- 68
2020-02-29 00:00:00 9.6 15 Sudoeste 21 Sudoeste 0 -- -- 63